Time;durP1;ratioP1;P1;durP2;ratioP2;P2;SDS_P1;SDS_P2;PMS_P1;PMS_P2;Temp;Humidity;BMP_temperature;BMP_pressure;BME280_temperature;BME280_humidity;BME280_pressure;Samples;Min_cycle;Max_cycle;Signal;HPM_P1;HPM_P2
2023/10/27 00:01:05;;;;;;;53.80;33.10;;;9.30;96.60;;;;;;4976591;28;20054;-83
2023/10/27 00:03:31;;;;;;;53.50;32.67;;;9.30;96.80;;;;;;4975473;28;20042;-81
2023/10/27 00:05:57;;;;;;;61.65;35.45;;;9.30;96.70;;;;;;4960585;28;20053;-82
2023/10/27 00:08:23;;;;;;;61.08;34.00;;;9.40;96.60;;;;;;4944267;28;20046;-83
2023/10/27 00:10:48;;;;;;;56.83;34.63;;;9.30;96.60;;;;;;4960299;28;20101;-83
2023/10/27 00:13:14;;;;;;;49.65;30.77;;;9.30;96.80;;;;;;4944493;28;20049;-81
2023/10/27 00:15:40;;;;;;;57.55;33.97;;;9.30;96.70;;;;;;4960660;28;20045;-81
2023/10/27 00:18:05;;;;;;;59.20;34.92;;;9.30;96.80;;;;;;4976691;28;20042;-83
2023/10/27 00:20:31;;;;;;;47.42;31.23;;;9.30;96.80;;;;;;4945173;28;20046;-82
2023/10/27 00:22:57;;;;;;;59.63;34.78;;;9.30;96.80;;;;;;4976825;28;20049;-82
2023/10/27 00:25:24;;;;;;;52.15;32.05;;;9.30;96.80;;;;;;4944384;28;20065;-83
2023/10/27 00:27:50;;;;;;;56.17;33.05;;;9.30;96.80;;;;;;4992253;28;20045;-83
2023/10/27 00:30:16;;;;;;;59.08;33.88;;;9.30;96.80;;;;;;4960435;28;20034;-82
2023/10/27 00:32:43;;;;;;;52.20;32.47;;;9.30;96.80;;;;;;4992850;28;20053;-83
2023/10/27 00:35:09;;;;;;;64.43;35.17;;;9.30;96.80;;;;;;4977624;28;20031;-83
2023/10/27 00:37:38;;;;;;;58.88;33.45;;;9.30;96.80;;;;;;4980928;28;20568;-82
2023/10/27 00:40:04;;;;;;;54.75;31.70;;;9.30;96.70;;;;;;4944407;28;20034;-82
2023/10/27 00:42:30;;;;;;;46.60;29.55;;;9.30;96.80;;;;;;4992062;28;20478;-83
2023/10/27 00:44:56;;;;;;;61.28;32.08;;;9.30;96.80;;;;;;4944507;28;20050;-83
2023/10/27 00:47:24;;;;;;;53.92;30.52;;;9.30;96.70;;;;;;4960826;28;20501;-83
2023/10/27 00:49:50;;;;;;;49.13;30.85;;;9.30;96.70;;;;;;4993761;28;20509;-83
2023/10/27 00:52:18;;;;;;;61.13;32.47;;;9.30;96.70;;;;;;4992158;28;20520;-82
2023/10/27 00:54:46;;;;;;;53.33;30.90;;;9.20;96.70;;;;;;4959873;28;20038;-83
2023/10/27 00:57:13;;;;;;;50.42;30.60;;;9.20;96.70;;;;;;4960129;28;20151;-83
2023/10/27 00:59:39;;;;;;;54.15;32.13;;;9.20;96.70;;;;;;4993344;28;20070;-81
2023/10/27 01:02:05;;;;;;;47.80;30.65;;;9.20;96.80;;;;;;4959908;28;20049;-82
2023/10/27 01:04:31;;;;;;;49.47;30.10;;;9.20;96.80;;;;;;4959846;28;20047;-82
2023/10/27 01:06:57;;;;;;;55.22;32.17;;;9.20;96.90;;;;;;4960464;28;20050;-82
2023/10/27 01:09:22;;;;;;;54.63;32.08;;;9.20;96.90;;;;;;4943998;28;20073;-82
2023/10/27 01:11:49;;;;;;;55.10;31.40;;;9.20;96.90;;;;;;4959620;28;20039;-82
2023/10/27 01:14:15;;;;;;;55.25;32.53;;;9.20;97.00;;;;;;4976483;28;20437;-83
2023/10/27 01:16:40;;;;;;;55.97;31.90;;;9.20;97.00;;;;;;4946798;28;20050;-81
2023/10/27 01:19:06;;;;;;;52.92;30.98;;;9.20;97.00;;;;;;4947449;28;20379;-83
2023/10/27 01:21:32;;;;;;;50.25;29.42;;;9.20;97.00;;;;;;4947392;28;20046;-83
2023/10/27 01:23:57;;;;;;;52.90;30.10;;;9.20;97.00;;;;;;4963566;28;20046;-83
2023/10/27 01:26:23;;;;;;;40.00;24.63;;;9.20;97.00;;;;;;4979354;28;20458;-82
2023/10/27 01:28:49;;;;;;;41.85;25.52;;;9.30;97.00;;;;;;4963231;28;20046;-83
2023/10/27 01:31:15;;;;;;;46.80;27.80;;;9.30;97.00;;;;;;4963355;28;20049;-82
2023/10/27 01:33:41;;;;;;;51.28;29.58;;;9.30;97.00;;;;;;4979491;28;20069;-80
2023/10/27 01:36:07;;;;;;;50.30;29.52;;;9.30;97.10;;;;;;4964333;28;20039;-82
2023/10/27 01:38:33;;;;;;;45.83;29.05;;;9.30;97.10;;;;;;4996098;28;20089;-81
2023/10/27 01:40:58;;;;;;;51.15;29.60;;;9.30;97.10;;;;;;4963835;28;20085;-82
2023/10/27 01:43:24;;;;;;;53.00;28.50;;;9.30;97.20;;;;;;4980387;28;20042;-82
2023/10/27 01:45:50;;;;;;;49.45;28.17;;;9.30;97.20;;;;;;4947129;28;20096;-82
2023/10/27 01:48:15;;;;;;;44.55;26.13;;;9.40;97.20;;;;;;4964087;28;20046;-84
2023/10/27 01:50:41;;;;;;;44.20;26.23;;;9.40;97.20;;;;;;4964093;28;20042;-82
2023/10/27 01:53:07;;;;;;;45.08;26.33;;;9.40;97.20;;;;;;4948082;28;20442;-82
2023/10/27 01:55:33;;;;;;;49.10;25.83;;;9.40;97.20;;;;;;4978807;28;20038;-83
2023/10/27 01:57:58;;;;;;;46.58;26.10;;;9.40;97.20;;;;;;4963118;28;20100;-83
2023/10/27 02:00:24;;;;;;;43.90;25.73;;;9.40;97.20;;;;;;4972869;28;20057;-82
2023/10/27 02:02:50;;;;;;;38.03;22.60;;;9.50;97.20;;;;;;4966224;28;20107;-83
2023/10/27 02:05:15;;;;;;;42.45;24.33;;;9.50;97.00;;;;;;4966212;28;20052;-81
2023/10/27 02:07:41;;;;;;;39.55;23.70;;;9.40;97.10;;;;;;4949817;28;20151;-82
2023/10/27 02:10:07;;;;;;;41.10;22.77;;;9.50;97.00;;;;;;4998844;28;20041;-83
2023/10/27 02:12:33;;;;;;;38.28;23.02;;;9.40;97.00;;;;;;4998060;28;20127;-83
2023/10/27 02:14:59;;;;;;;43.08;24.50;;;9.50;97.10;;;;;;4965831;28;20108;-83
2023/10/27 02:17:25;;;;;;;35.10;21.77;;;9.50;97.10;;;;;;4965913;28;20038;-82
2023/10/27 02:19:50;;;;;;;39.38;22.48;;;9.50;97.10;;;;;;4949769;28;20044;-83
2023/10/27 02:22:19;;;;;;;36.35;22.35;;;9.50;97.10;;;;;;4965589;28;20139;-81
2023/10/27 02:24:45;;;;;;;36.83;23.38;;;9.50;97.10;;;;;;5014299;28;20096;-82
2023/10/27 02:27:11;;;;;;;40.80;23.17;;;9.50;97.10;;;;;;4981119;28;20042;-83
2023/10/27 02:29:37;;;;;;;39.60;21.50;;;9.40;97.10;;;;;;4965449;28;20072;-83
2023/10/27 02:32:03;;;;;;;37.20;21.25;;;9.40;97.20;;;;;;4965649;28;20042;-82
2023/10/27 02:34:28;;;;;;;35.75;22.33;;;9.40;97.10;;;;;;4999991;28;20128;-82
2023/10/27 02:36:54;;;;;;;35.72;21.40;;;9.50;97.10;;;;;;4949677;28;20034;-83
2023/10/27 02:39:20;;;;;;;34.40;20.42;;;9.40;97.00;;;;;;4965335;28;20084;-83
2023/10/27 02:41:46;;;;;;;35.42;20.98;;;9.40;97.10;;;;;;4981294;28;20080;-82
2023/10/27 02:44:12;;;;;;;30.00;19.73;;;9.40;97.00;;;;;;4997995;28;20042;-83
2023/10/27 02:46:39;;;;;;;32.40;20.88;;;9.40;97.10;;;;;;4965397;28;20046;-83
2023/10/27 02:49:04;;;;;;;34.33;21.08;;;9.40;97.10;;;;;;4997382;28;20050;-82
2023/10/27 02:51:31;;;;;;;36.80;20.85;;;9.40;97.20;;;;;;4981664;28;20030;-81
2023/10/27 02:53:57;;;;;;;32.17;20.52;;;9.40;97.20;;;;;;5013818;28;20084;-82
2023/10/27 02:56:23;;;;;;;34.65;20.15;;;9.40;97.20;;;;;;4965879;28;20076;-83
2023/10/27 02:58:50;;;;;;;30.92;19.85;;;9.40;97.20;;;;;;4965382;28;20077;-83
2023/10/27 03:01:19;;;;;;;33.78;20.23;;;9.40;97.20;;;;;;4993709;28;20062;-83
2023/10/27 03:03:45;;;;;;;33.63;19.48;;;9.40;97.20;;;;;;4962244;28;20371;-81
2023/10/27 03:06:11;;;;;;;32.25;20.13;;;9.40;97.30;;;;;;4978425;28;20585;-83
2023/10/27 03:08:38;;;;;;;33.17;20.27;;;9.40;97.20;;;;;;4962946;28;20078;-82
2023/10/27 03:11:04;;;;;;;33.22;20.83;;;9.40;97.30;;;;;;4985832;28;20042;-82
2023/10/27 03:13:31;;;;;;;30.00;19.08;;;9.40;97.20;;;;;;4962905;28;20049;-83
2023/10/27 03:15:58;;;;;;;33.78;19.58;;;9.40;97.10;;;;;;4962164;28;20053;-82
2023/10/27 03:18:24;;;;;;;32.25;18.52;;;9.40;97.20;;;;;;4961711;28;20049;-83
2023/10/27 03:20:57;;;;;;;28.65;18.27;;;9.40;97.10;;;;;;4977728;28;20089;-81
2023/10/27 03:23:24;;;;;;;29.02;19.70;;;9.40;97.10;;;;;;4961817;28;20073;-83
2023/10/27 03:25:50;;;;;;;30.30;18.00;;;9.40;97.20;;;;;;4977526;28;20042;-83
2023/10/27 03:28:16;;;;;;;30.15;18.63;;;9.40;97.10;;;;;;4977723;28;20053;-83
2023/10/27 03:30:42;;;;;;;29.10;18.38;;;9.40;97.10;;;;;;4977399;28;20121;-84
2023/10/27 03:33:08;;;;;;;28.85;18.38;;;9.40;97.00;;;;;;4948695;28;20097;-82
2023/10/27 03:35:34;;;;;;;26.40;18.17;;;9.30;97.00;;;;;;4963725;28;20038;-82
2023/10/27 03:38:00;;;;;;;27.27;17.75;;;9.40;97.00;;;;;;4976615;28;20046;-83
2023/10/27 03:40:26;;;;;;;29.48;18.77;;;9.40;97.00;;;;;;4993695;28;20049;-82
2023/10/27 03:42:52;;;;;;;27.33;17.35;;;9.40;97.00;;;;;;4963614;28;20042;-81
2023/10/27 03:45:17;;;;;;;26.15;16.98;;;9.40;97.10;;;;;;4961505;28;20400;-82
2023/10/27 03:47:43;;;;;;;28.95;18.52;;;9.30;97.10;;;;;;4945612;28;20046;-82
2023/10/27 03:50:12;;;;;;;30.15;18.58;;;9.30;97.00;;;;;;4961591;28;20529;-82
2023/10/27 03:52:38;;;;;;;27.23;18.23;;;9.40;97.00;;;;;;4977495;28;20038;-81
2023/10/27 03:55:04;;;;;;;26.67;17.55;;;9.40;97.00;;;;;;4961169;28;20061;-83
2023/10/27 03:57:36;;;;;;;30.17;17.35;;;9.30;97.00;;;;;;4961051;28;20038;-83
2023/10/27 04:00:05;;;;;;;25.30;17.00;;;9.40;97.00;;;;;;4997641;28;20128;-81
2023/10/27 04:02:31;;;;;;;26.98;17.58;;;9.40;97.00;;;;;;4977760;28;20042;-82
2023/10/27 04:04:57;;;;;;;24.30;16.50;;;9.40;96.90;;;;;;4993417;28;20125;-83
2023/10/27 04:07:22;;;;;;;28.08;17.38;;;9.40;96.90;;;;;;4977057;28;20042;-82
2023/10/27 04:09:48;;;;;;;25.85;15.95;;;9.40;97.00;;;;;;4961177;28;20045;-82
2023/10/27 04:12:14;;;;;;;24.00;15.70;;;9.40;96.90;;;;;;4960879;28;20034;-83
2023/10/27 04:14:40;;;;;;;28.42;16.60;;;9.40;96.90;;;;;;4961088;28;20120;-82
2023/10/27 04:17:05;;;;;;;28.73;16.55;;;9.40;96.90;;;;;;4961335;28;20080;-81
2023/10/27 04:19:31;;;;;;;25.33;15.77;;;9.40;97.00;;;;;;4977155;28;20530;-83
2023/10/27 04:21:57;;;;;;;25.15;16.17;;;9.40;97.00;;;;;;4960721;28;20053;-83
2023/10/27 04:24:22;;;;;;;24.88;15.60;;;9.50;97.00;;;;;;4961744;28;20042;-82
2023/10/27 04:26:48;;;;;;;25.15;14.85;;;9.50;96.90;;;;;;4962692;28;20038;-82
2023/10/27 04:29:14;;;;;;;30.10;17.10;;;9.50;96.90;;;;;;4975108;28;20047;-81
2023/10/27 04:31:39;;;;;;;30.60;17.50;;;9.50;97.00;;;;;;4981543;28;20034;-80
2023/10/27 04:34:05;;;;;;;27.85;16.98;;;9.50;96.90;;;;;;4980680;28;20045;-80
2023/10/27 04:36:31;;;;;;;26.55;15.85;;;9.50;96.90;;;;;;4983398;28;20072;-82
2023/10/27 04:38:56;;;;;;;27.95;17.15;;;9.50;96.90;;;;;;4985826;28;20425;-80
2023/10/27 04:41:22;;;;;;;27.75;15.90;;;9.50;96.90;;;;;;4983221;28;20085;-80
2023/10/27 04:43:48;;;;;;;25.48;16.00;;;9.60;96.80;;;;;;4951516;28;20039;-84
2023/10/27 04:46:13;;;;;;;27.70;16.25;;;9.50;96.80;;;;;;4944796;28;20153;-82
2023/10/27 04:48:39;;;;;;;25.45;16.70;;;9.50;96.90;;;;;;4961592;28;20169;-82
2023/10/27 04:51:05;;;;;;;26.10;17.17;;;9.50;96.90;;;;;;4981371;28;20050;-81
2023/10/27 04:53:31;;;;;;;29.92;17.35;;;9.50;96.90;;;;;;4950188;28;20061;-81
2023/10/27 04:55:57;;;;;;;26.15;16.13;;;9.50;96.90;;;;;;4984723;28;20295;-83
2023/10/27 04:58:23;;;;;;;27.52;16.58;;;9.50;96.90;;;;;;4981377;28;20046;-81
2023/10/27 05:00:49;;;;;;;26.80;17.23;;;9.50;97.00;;;;;;4979296;28;20068;-81
2023/10/27 05:03:16;;;;;;;26.20;16.02;;;9.50;96.90;;;;;;5017220;28;20045;-82
2023/10/27 05:05:42;;;;;;;23.20;14.57;;;9.50;96.90;;;;;;4953740;28;20046;-82
2023/10/27 05:08:07;;;;;;;28.35;17.45;;;9.40;96.90;;;;;;4999713;28;20034;-83
2023/10/27 05:10:33;;;;;;;25.73;14.77;;;9.40;96.90;;;;;;4999127;28;20096;-83
2023/10/27 05:12:59;;;;;;;25.40;15.77;;;9.50;96.90;;;;;;4983507;28;20049;-82
2023/10/27 05:15:25;;;;;;;26.02;15.35;;;9.50;96.90;;;;;;4966876;28;20116;-82
2023/10/27 05:17:51;;;;;;;24.98;15.55;;;9.50;96.90;;;;;;4999344;28;20428;-83
2023/10/27 05:20:18;;;;;;;24.83;15.32;;;9.40;96.90;;;;;;4982697;28;20034;-83
2023/10/27 05:22:44;;;;;;;25.33;14.75;;;9.40;96.90;;;;;;4982851;28;20473;-83
2023/10/27 05:25:10;;;;;;;27.25;15.23;;;9.40;96.80;;;;;;4951521;28;20045;-83
2023/10/27 05:27:35;;;;;;;29.58;15.73;;;9.40;96.80;;;;;;5000095;28;20034;-81
2023/10/27 05:30:02;;;;;;;26.17;14.52;;;9.40;96.90;;;;;;4966741;28;20030;-81
2023/10/27 05:32:29;;;;;;;25.80;15.60;;;9.40;96.80;;;;;;4999676;28;20525;-82
2023/10/27 05:34:56;;;;;;;23.52;14.75;;;9.40;96.80;;;;;;5000391;28;20073;-82
2023/10/27 05:37:21;;;;;;;24.60;15.77;;;9.40;96.80;;;;;;4983218;28;20042;-82
2023/10/27 05:39:48;;;;;;;22.38;14.93;;;9.40;96.90;;;;;;4999121;28;20053;-82
2023/10/27 05:42:14;;;;;;;26.45;15.50;;;9.40;96.90;;;;;;4966891;28;20050;-82
2023/10/27 05:44:41;;;;;;;25.17;16.23;;;9.40;96.90;;;;;;4982592;28;20139;-83
2023/10/27 05:47:07;;;;;;;21.80;14.50;;;9.30;96.90;;;;;;4982642;28;20048;-81
2023/10/27 05:49:33;;;;;;;26.55;16.05;;;9.40;97.00;;;;;;4998497;28;20049;-83
2023/10/27 05:52:02;;;;;;;26.00;14.90;;;9.40;97.00;;;;;;4966511;28;20124;-82
2023/10/27 05:54:29;;;;;;;24.77;15.50;;;9.40;97.00;;;;;;4998825;28;20129;-84
2023/10/27 05:56:55;;;;;;;24.08;15.18;;;9.40;97.00;;;;;;4998802;28;20504;-82
2023/10/27 05:59:21;;;;;;;23.45;14.40;;;9.40;97.00;;;;;;4982405;28;20038;-83
2023/10/27 06:01:48;;;;;;;25.17;14.95;;;9.30;97.00;;;;;;4949684;28;20049;-83
2023/10/27 06:04:17;;;;;;;23.45;14.80;;;9.40;97.00;;;;;;4998538;28;20077;-83
2023/10/27 06:06:43;;;;;;;21.95;13.35;;;9.30;97.00;;;;;;4967291;28;20046;-83
2023/10/27 06:09:08;;;;;;;20.98;12.88;;;9.40;97.00;;;;;;4967795;28;20049;-82
2023/10/27 06:11:34;;;;;;;18.70;12.25;;;9.30;97.00;;;;;;4999424;28;20038;-82
2023/10/27 06:14:00;;;;;;;22.13;12.93;;;9.30;97.00;;;;;;4984015;28;20038;-82
2023/10/27 06:16:26;;;;;;;23.17;13.18;;;9.30;97.00;;;;;;4966308;28;20108;-83
2023/10/27 06:18:52;;;;;;;20.83;13.40;;;9.30;96.90;;;;;;4982085;28;20432;-83
2023/10/27 06:21:18;;;;;;;19.35;12.93;;;9.30;96.90;;;;;;4998152;28;20045;-83
2023/10/27 06:23:44;;;;;;;19.08;12.93;;;9.30;96.90;;;;;;4998972;28;20050;-81
2023/10/27 06:26:10;;;;;;;23.88;12.98;;;9.30;97.00;;;;;;4997937;28;20382;-81
2023/10/27 06:28:36;;;;;;;18.92;12.13;;;9.30;96.90;;;;;;4965357;28;20533;-82
2023/10/27 06:31:03;;;;;;;19.63;12.50;;;9.30;97.00;;;;;;4981326;28;20038;-81
2023/10/27 06:33:32;;;;;;;23.08;13.70;;;9.30;97.00;;;;;;5011063;28;20038;-82
2023/10/27 06:35:59;;;;;;;24.70;14.55;;;9.30;97.00;;;;;;4963352;28;20038;-83
2023/10/27 06:38:25;;;;;;;23.33;14.85;;;9.20;97.00;;;;;;4978545;28;20042;-81
2023/10/27 06:40:51;;;;;;;22.55;13.68;;;9.20;97.00;;;;;;4962273;28;20138;-83
2023/10/27 06:43:17;;;;;;;21.63;14.20;;;9.30;97.00;;;;;;4963001;28;20048;-82
2023/10/27 06:45:42;;;;;;;22.85;14.27;;;9.30;97.00;;;;;;4946707;28;20085;-83
2023/10/27 06:48:09;;;;;;;20.85;13.68;;;9.20;97.00;;;;;;4946016;28;20483;-82
2023/10/27 06:50:34;;;;;;;21.77;14.50;;;9.30;97.00;;;;;;4962055;28;20038;-84
2023/10/27 06:53:00;;;;;;;23.60;14.20;;;9.20;97.00;;;;;;4991511;28;20560;-82
2023/10/27 06:55:26;;;;;;;21.95;14.55;;;9.30;97.10;;;;;;4978714;28;20042;-82
2023/10/27 06:57:52;;;;;;;23.55;13.40;;;9.30;97.00;;;;;;4993898;28;20034;-83
2023/10/27 07:00:18;;;;;;;21.08;13.85;;;9.30;97.00;;;;;;4970483;28;20045;-82
2023/10/27 07:02:44;;;;;;;20.95;13.88;;;9.30;97.00;;;;;;4966537;28;20042;-83
2023/10/27 07:05:13;;;;;;;21.63;13.65;;;9.30;97.00;;;;;;4980786;28;20522;-83
2023/10/27 07:07:40;;;;;;;19.85;13.40;;;9.30;97.00;;;;;;4979747;28;20053;-84
2023/10/27 07:10:06;;;;;;;22.90;12.77;;;9.40;97.00;;;;;;4979931;28;20038;-82
2023/10/27 07:12:32;;;;;;;21.60;14.40;;;9.40;97.10;;;;;;4980982;28;20560;-82
2023/10/27 07:14:58;;;;;;;21.92;12.88;;;9.40;97.10;;;;;;4981979;28;20080;-82
2023/10/27 07:17:24;;;;;;;23.50;14.20;;;9.50;97.10;;;;;;4996996;28;20482;-84
2023/10/27 07:19:49;;;;;;;23.83;15.63;;;9.50;97.10;;;;;;4997346;28;20053;-83
2023/10/27 07:22:17;;;;;;;20.60;13.63;;;9.50;97.10;;;;;;4964592;28;20375;-83
2023/10/27 07:24:43;;;;;;;23.95;16.30;;;9.50;97.00;;;;;;4981009;28;20033;-83
2023/10/27 07:27:09;;;;;;;28.70;25.67;;;9.50;97.10;;;;;;4965327;28;20558;-83
2023/10/27 07:29:35;;;;;;;19.40;14.07;;;9.50;97.00;;;;;;4980483;28;20046;-82
2023/10/27 07:32:00;;;;;;;20.98;14.80;;;9.60;97.00;;;;;;4980602;28;20041;-82
2023/10/27 07:34:26;;;;;;;20.65;15.65;;;9.60;97.00;;;;;;4999139;28;20076;-81
2023/10/27 07:36:54;;;;;;;20.55;13.75;;;9.60;97.00;;;;;;4982689;28;20486;-83
2023/10/27 07:39:22;;;;;;;21.98;18.40;;;9.60;97.00;;;;;;4964863;28;20172;-83
2023/10/27 07:41:51;;;;;;;20.00;13.73;;;9.60;97.00;;;;;;4980682;28;20054;-82
2023/10/27 07:44:17;;;;;;;18.38;13.07;;;9.70;97.00;;;;;;4980539;28;20116;-83
2023/10/27 07:46:43;;;;;;;20.45;13.98;;;9.70;97.00;;;;;;4996477;28;20482;-83
2023/10/27 07:49:09;;;;;;;20.15;13.88;;;9.70;97.00;;;;;;4980185;28;20046;-84
2023/10/27 07:51:35;;;;;;;20.70;13.63;;;9.70;97.00;;;;;;4980443;28;20041;-84
2023/10/27 07:54:04;;;;;;;21.67;14.23;;;9.80;97.00;;;;;;4980111;28;20049;-82
2023/10/27 07:56:30;;;;;;;18.83;13.25;;;9.80;96.90;;;;;;4996073;28;20107;-83
2023/10/27 07:58:55;;;;;;;19.27;13.30;;;9.80;97.00;;;;;;4979907;28;20048;-82
2023/10/27 08:01:21;;;;;;;17.75;12.55;;;9.90;96.90;;;;;;4995873;28;20058;-84
2023/10/27 08:03:47;;;;;;;20.45;12.88;;;9.90;96.80;;;;;;4996133;28;20437;-84
2023/10/27 08:06:13;;;;;;;19.20;12.07;;;9.90;96.80;;;;;;4980050;28;20037;-82
2023/10/27 08:08:40;;;;;;;17.83;12.95;;;10.00;96.80;;;;;;4996911;28;20041;-82
2023/10/27 08:11:06;;;;;;;16.55;11.52;;;9.90;96.70;;;;;;4982097;28;20096;-83
2023/10/27 08:13:32;;;;;;;17.60;12.38;;;10.00;96.60;;;;;;4996291;28;20044;-84
2023/10/27 08:16:02;;;;;;;20.38;13.35;;;10.00;96.60;;;;;;4965412;28;20097;-84
2023/10/27 08:18:28;;;;;;;16.67;11.10;;;10.00;96.50;;;;;;4980251;28;20049;-83
2023/10/27 08:20:55;;;;;;;15.85;11.88;;;10.00;96.40;;;;;;4979971;28;20041;-82
2023/10/27 08:23:21;;;;;;;15.75;12.02;;;10.00;96.40;;;;;;4979649;28;20129;-84
2023/10/27 08:25:51;;;;;;;16.73;11.25;;;10.00;96.30;;;;;;4979779;28;20136;-82
2023/10/27 08:28:20;;;;;;;15.27;11.27;;;10.00;96.10;;;;;;4964370;28;20110;-83
2023/10/27 08:30:47;;;;;;;17.50;11.10;;;10.00;96.20;;;;;;4997948;28;20129;-82
2023/10/27 08:33:16;;;;;;;13.43;10.48;;;10.00;96.10;;;;;;4982084;28;20038;-83
2023/10/27 08:35:41;;;;;;;15.45;11.48;;;10.00;96.00;;;;;;4964241;28;20464;-83
2023/10/27 08:38:07;;;;;;;15.98;11.90;;;10.00;95.90;;;;;;4995776;28;20129;-85
2023/10/27 08:40:34;;;;;;;14.57;11.18;;;10.00;96.00;;;;;;4980107;28;20128;-82
2023/10/27 08:43:03;;;;;;;15.93;12.02;;;10.10;95.90;;;;;;4979337;28;20490;-84
2023/10/27 08:45:29;;;;;;;15.82;11.73;;;10.00;95.90;;;;;;4979941;28;20103;-84
2023/10/27 08:47:55;;;;;;;15.10;11.15;;;10.10;95.90;;;;;;4963515;28;20115;-84
2023/10/27 08:50:22;;;;;;;16.23;10.73;;;10.10;95.90;;;;;;4979638;28;20490;-84
2023/10/27 08:52:51;;;;;;;13.57;10.40;;;10.10;95.90;;;;;;4979352;28;20038;-83
2023/10/27 08:55:16;;;;;;;17.10;11.68;;;10.10;95.90;;;;;;4964139;28;20111;-84
2023/10/27 08:57:42;;;;;;;16.48;11.13;;;10.10;95.80;;;;;;4963630;28;20542;-85
2023/10/27 09:00:08;;;;;;;17.92;11.85;;;10.10;95.80;;;;;;4981151;28;20434;-81
2023/10/27 09:02:48;;;;;;;14.95;11.32;;;10.20;95.70;;;;;;5132615;27;20407;-81
2023/10/27 09:05:15;;;;;;;15.27;12.02;;;10.20;95.70;;;;;;5113383;28;20031;-83
2023/10/27 09:07:40;;;;;;;15.52;11.55;;;10.20;95.70;;;;;;5113116;28;20035;-83
2023/10/27 09:10:07;;;;;;;18.67;12.02;;;10.30;95.70;;;;;;5147738;27;20040;-83
2023/10/27 09:12:36;;;;;;;16.10;12.00;;;10.30;95.70;;;;;;5113497;27;20442;-84
2023/10/27 09:15:07;;;;;;;15.10;10.95;;;10.30;95.70;;;;;;5113433;28;20043;-83
2023/10/27 09:17:57;;;;;;;16.65;11.82;;;10.30;95.50;;;;;;5098180;28;20447;-82
2023/10/27 09:20:24;;;;;;;15.57;11.57;;;10.30;95.50;;;;;;5114186;28;20039;-81
2023/10/27 09:23:05;;;;;;;16.30;12.30;;;10.40;95.60;;;;;;5113579;28;20138;-82
2023/10/27 09:25:32;;;;;;;15.70;11.18;;;10.40;95.50;;;;;;5116317;28;20529;-84
2023/10/27 09:28:00;;;;;;;16.95;12.32;;;10.40;95.60;;;;;;5099621;28;20031;-82
2023/10/27 09:30:32;;;;;;;17.38;12.95;;;10.40;95.60;;;;;;5114297;28;20480;-83
2023/10/27 09:33:26;;;;;;;15.40;11.80;;;10.50;95.60;;;;;;5113203;28;20039;-82
2023/10/27 09:35:52;;;;;;;16.57;12.97;;;10.50;95.50;;;;;;5113628;28;20426;-81
2023/10/27 09:38:20;;;;;;;17.50;12.55;;;10.50;95.40;;;;;;5079667;28;20035;-81
2023/10/27 09:40:46;;;;;;;14.65;11.63;;;10.50;95.40;;;;;;5096461;28;20075;-82
2023/10/27 09:43:25;;;;;;;14.80;11.65;;;10.60;95.20;;;;;;5095803;28;20043;-83
2023/10/27 09:45:57;;;;;;;17.30;12.80;;;10.60;95.20;;;;;;5095677;27;20498;-83
2023/10/27 09:48:25;;;;;;;15.27;10.52;;;10.60;95.20;;;;;;5112203;28;20031;-84
2023/10/27 09:50:59;;;;;;;17.30;12.38;;;10.60;95.00;;;;;;5112207;28;20054;-80
2023/10/27 09:53:27;;;;;;;14.90;11.32;;;10.70;95.10;;;;;;5112500;28;20048;-83
2023/10/27 09:55:56;;;;;;;16.85;11.88;;;10.70;95.10;;;;;;5112124;28;20086;-84
2023/10/27 09:58:23;;;;;;;16.05;11.07;;;10.80;94.90;;;;;;5129168;28;20046;-84
2023/10/27 10:00:49;;;;;;;16.48;12.15;;;10.80;95.00;;;;;;5094820;28;20051;-81
2023/10/27 10:03:16;;;;;;;15.32;11.30;;;10.90;95.00;;;;;;5081516;28;20075;-81
2023/10/27 10:06:10;;;;;;;14.57;11.70;;;10.90;94.80;;;;;;5120958;27;20047;-81
2023/10/27 10:08:36;;;;;;;14.60;11.05;;;10.90;94.60;;;;;;5103484;28;20035;-82
2023/10/27 10:11:16;;;;;;;13.85;10.38;;;11.00;94.20;;;;;;5088146;28;20076;-81
2023/10/27 10:13:42;;;;;;;15.18;10.88;;;11.00;94.60;;;;;;5092607;28;20043;-82
2023/10/27 10:16:11;;;;;;;13.82;10.75;;;11.00;94.30;;;;;;5091029;28;20042;-81
2023/10/27 10:18:51;;;;;;;14.57;11.25;;;11.00;94.20;;;;;;5108198;28;20402;-81
2023/10/27 10:21:39;;;;;;;15.07;9.77;;;11.00;94.20;;;;;;5107605;28;20035;-82
2023/10/27 10:24:08;;;;;;;15.18;10.80;;;11.10;94.20;;;;;;5108808;28;20934;-82
2023/10/27 10:27:05;;;;;;;16.20;11.98;;;11.10;93.90;;;;;;5108268;28;20043;-82
2023/10/27 10:29:32;;;;;;;17.20;11.75;;;11.10;93.90;;;;;;5108218;28;20181;-81
2023/10/27 10:32:30;;;;;;;15.82;11.60;;;11.20;93.90;;;;;;5089885;27;20501;-82
2023/10/27 10:35:30;;;;;;;17.27;11.25;;;11.20;93.40;;;;;;5107850;28;20088;-81
2023/10/27 10:37:56;;;;;;;19.40;14.23;;;11.20;93.20;;;;;;5031371;28;20055;-80
2023/10/27 10:40:24;;;;;;;17.05;12.38;;;11.20;93.10;;;;;;5073996;28;20104;-81
2023/10/27 10:43:24;;;;;;;23.77;12.35;;;11.20;93.30;;;;;;5073125;28;20047;-81
2023/10/27 10:45:53;;;;;;;15.98;12.27;;;11.20;93.20;;;;;;5090045;28;21484;-82
2023/10/27 10:48:20;;;;;;;15.00;11.80;;;11.20;93.00;;;;;;5096793;28;20044;-81
2023/10/27 10:50:47;;;;;;;16.88;12.90;;;11.10;92.30;;;;;;5094712;28;20399;-81
2023/10/27 10:53:17;;;;;;;15.77;12.52;;;11.10;92.70;;;;;;5092338;28;20051;-81
2023/10/27 10:55:48;;;;;;;14.18;11.13;;;11.10;93.00;;;;;;5093357;28;20453;-81
2023/10/27 10:58:24;;;;;;;16.67;12.30;;;11.20;93.10;;;;;;5093167;28;20058;-82
2023/10/27 11:00:51;;;;;;;15.82;12.07;;;11.30;93.20;;;;;;5094757;28;20120;-82
2023/10/27 11:03:18;;;;;;;16.83;11.82;;;11.30;93.20;;;;;;5073817;28;20046;-80
2023/10/27 11:05:44;;;;;;;16.67;12.00;;;11.30;93.10;;;;;;5094607;28;20031;-81
2023/10/27 11:08:10;;;;;;;16.45;12.73;;;11.30;93.00;;;;;;5111456;28;20407;-82
2023/10/27 11:10:36;;;;;;;16.58;13.10;;;11.20;92.70;;;;;;5107203;27;20047;-81
2023/10/27 11:13:05;;;;;;;16.35;12.55;;;11.30;92.90;;;;;;5110354;28;20042;-82
2023/10/27 11:15:51;;;;;;;20.27;14.32;;;11.30;93.00;;;;;;5094483;28;20097;-82
2023/10/27 11:18:17;;;;;;;18.30;13.88;;;11.30;93.10;;;;;;5076637;28;20478;-82
2023/10/27 11:20:44;;;;;;;17.73;13.63;;;11.30;92.80;;;;;;5076984;28;20040;-81
2023/10/27 11:23:14;;;;;;;17.10;13.18;;;11.30;92.70;;;;;;5093277;28;20042;-81
2023/10/27 11:25:42;;;;;;;17.23;13.90;;;11.20;92.70;;;;;;5092028;28;20043;-82
2023/10/27 11:28:28;;;;;;;31.48;14.65;;;11.30;93.00;;;;;;5109786;28;20071;-82
2023/10/27 11:31:01;;;;;;;19.23;14.30;;;11.20;92.60;;;;;;5108953;28;20740;-81
2023/10/27 11:33:28;;;;;;;23.48;14.07;;;11.30;92.70;;;;;;5090007;28;20035;-81
2023/10/27 11:35:55;;;;;;;27.23;16.00;;;11.30;92.80;;;;;;5109610;28;20151;-81
2023/10/27 11:38:25;;;;;;;20.38;14.73;;;11.30;92.80;;;;;;5093945;28;20046;-81
2023/10/27 11:40:51;;;;;;;17.92;13.20;;;11.30;92.80;;;;;;5059710;28;20056;-82
2023/10/27 11:43:18;;;;;;;20.02;15.05;;;11.30;92.70;;;;;;5090631;28;20032;-83
2023/10/27 11:45:45;;;;;;;20.15;14.27;;;11.20;92.40;;;;;;5108838;28;20507;-81
2023/10/27 11:48:11;;;;;;;21.17;15.48;;;11.20;92.30;;;;;;5112519;28;20048;-80
2023/10/27 11:50:38;;;;;;;17.40;13.50;;;11.20;92.60;;;;;;5079382;28;20035;-81
2023/10/27 11:53:04;;;;;;;20.50;15.32;;;11.20;92.60;;;;;;5113589;28;20108;-82
2023/10/27 11:55:31;;;;;;;20.85;16.08;;;11.20;92.20;;;;;;5112764;28;20051;-84
2023/10/27 11:57:56;;;;;;;22.70;15.23;;;11.20;92.40;;;;;;5095048;28;20042;-83
2023/10/27 12:00:23;;;;;;;19.30;14.13;;;11.10;92.00;;;;;;5078666;28;20040;-82
2023/10/27 12:02:48;;;;;;;21.73;14.32;;;11.10;92.20;;;;;;5079260;28;20234;-82
2023/10/27 12:05:14;;;;;;;19.90;14.88;;;11.10;92.10;;;;;;5062968;28;20122;-81
2023/10/27 12:07:40;;;;;;;20.13;14.77;;;11.10;92.20;;;;;;5083956;28;20051;-82
2023/10/27 12:10:06;;;;;;;21.30;14.82;;;11.10;92.20;;;;;;5079974;28;20036;-84
2023/10/27 12:12:32;;;;;;;17.80;13.63;;;11.10;92.40;;;;;;5096176;28;20054;-83
2023/10/27 12:14:58;;;;;;;19.38;14.10;;;11.00;92.50;;;;;;5062322;28;20044;-80
2023/10/27 12:17:23;;;;;;;19.95;14.73;;;11.10;92.50;;;;;;5080449;28;20039;-81
2023/10/27 12:19:49;;;;;;;18.70;13.98;;;11.00;92.40;;;;;;5079369;28;20074;-82
2023/10/27 12:22:15;;;;;;;23.50;15.75;;;11.10;92.50;;;;;;5096243;28;20056;-85
2023/10/27 12:24:41;;;;;;;20.40;15.23;;;11.00;92.50;;;;;;5081267;28;20050;-82
2023/10/27 12:27:09;;;;;;;22.65;15.80;;;11.10;92.60;;;;;;5096178;28;20031;-80
2023/10/27 12:29:35;;;;;;;25.65;17.77;;;11.00;92.60;;;;;;5096105;28;20505;-80
2023/10/27 12:32:03;;;;;;;25.38;16.92;;;11.00;93.10;;;;;;5095710;28;20134;-83
2023/10/27 12:34:28;;;;;;;26.92;18.48;;;11.00;93.30;;;;;;5062630;28;20039;-83